sensor_id;sensor_type;location;lat;lon;timestamp;pressure;altitude;pressure_sealevel;temperature;humidity
66681;BME280;53575;51.366;12.350;2023-09-19T00:02:17;99484.72;;;17.25;100.00
66681;BME280;53575;51.366;12.350;2023-09-19T00:04:43;99480.34;;;17.24;100.00
66681;BME280;53575;51.366;12.350;2023-09-19T00:07:08;99475.13;;;17.22;100.00
66681;BME280;53575;51.366;12.350;2023-09-19T00:09:34;99470.72;;;17.23;100.00
66681;BME280;53575;51.366;12.350;2023-09-19T00:12:06;99476.97;;;17.20;100.00
66681;BME280;53575;51.366;12.350;2023-09-19T00:14:32;99476.97;;;17.20;100.00
66681;BME280;53575;51.366;12.350;2023-09-19T00:17:03;99472.72;;;17.18;100.00
66681;BME280;53575;51.366;12.350;2023-09-19T00:19:37;99474.63;;;17.14;100.00
66681;BME280;53575;51.366;12.350;2023-09-19T00:22:07;99478.19;;;17.13;100.00
66681;BME280;53575;51.366;12.350;2023-09-19T00:24:33;99472.22;;;17.10;100.00
66681;BME280;53575;51.366;12.350;2023-09-19T00:26:58;99472.34;;;17.07;100.00
66681;BME280;53575;51.366;12.350;2023-09-19T00:29:25;99470.63;;;17.05;100.00
66681;BME280;53575;51.366;12.350;2023-09-19T00:31:55;99478.63;;;17.04;100.00
66681;BME280;53575;51.366;12.350;2023-09-19T00:34:21;99476.13;;;17.01;100.00
66681;BME280;53575;51.366;12.350;2023-09-19T00:36:46;99469.22;;;16.98;100.00
66681;BME280;53575;51.366;12.350;2023-09-19T00:39:12;99475.41;;;16.97;100.00
66681;BME280;53575;51.366;12.350;2023-09-19T00:41:37;99469.34;;;16.95;100.00
66681;BME280;53575;51.366;12.350;2023-09-19T00:44:03;99465.00;;;16.94;100.00
66681;BME280;53575;51.366;12.350;2023-09-19T00:46:30;99463.28;;;16.93;100.00
66681;BME280;53575;51.366;12.350;2023-09-19T00:48:57;99463.34;;;16.92;100.00
66681;BME280;53575;51.366;12.350;2023-09-19T00:51:23;99458.13;;;16.90;100.00
66681;BME280;53575;51.366;12.350;2023-09-19T00:53:51;99466.97;;;16.89;100.00
66681;BME280;53575;51.366;12.350;2023-09-19T00:56:18;99471.41;;;16.89;100.00
66681;BME280;53575;51.366;12.350;2023-09-19T00:58:46;99467.91;;;16.88;100.00
66681;BME280;53575;51.366;12.350;2023-09-19T01:01:15;99466.13;;;16.89;100.00
66681;BME280;53575;51.366;12.350;2023-09-19T01:03:42;99477.66;;;16.86;100.00
66681;BME280;53575;51.366;12.350;2023-09-19T01:06:08;99472.47;;;16.85;100.00
66681;BME280;53575;51.366;12.350;2023-09-19T01:08:37;99476.94;;;16.83;100.00
66681;BME280;53575;51.366;12.350;2023-09-19T01:11:09;99477.03;;;16.81;100.00
66681;BME280;53575;51.366;12.350;2023-09-19T01:16:37;99467.53;;;16.77;100.00
66681;BME280;53575;51.366;12.350;2023-09-19T01:22:37;99466.06;;;16.70;100.00
66681;BME280;53575;51.366;12.350;2023-09-19T01:25:28;99469.78;;;16.66;100.00
66681;BME280;53575;51.366;12.350;2023-09-19T01:30:32;99482.31;;;16.61;100.00
66681;BME280;53575;51.366;12.350;2023-09-19T01:35:40;99495.44;;;16.62;100.00
66681;BME280;53575;51.366;12.350;2023-09-19T01:38:06;99503.28;;;16.64;100.00
66681;BME280;53575;51.366;12.350;2023-09-19T01:40:42;99496.28;;;16.63;100.00
66681;BME280;53575;51.366;12.350;2023-09-19T01:43:21;99498.91;;;16.63;100.00
66681;BME280;53575;51.366;12.350;2023-09-19T01:52:04;99506.06;;;16.61;100.00
66681;BME280;53575;51.366;12.350;2023-09-19T01:54:34;99506.84;;;16.63;100.00
66681;BME280;53575;51.366;12.350;2023-09-19T01:57:07;99515.59;;;16.63;100.00
66681;BME280;53575;51.366;12.350;2023-09-19T01:59:43;99516.31;;;16.67;100.00
66681;BME280;53575;51.366;12.350;2023-09-19T02:02:11;99521.47;;;16.70;100.00
66681;BME280;53575;51.366;12.350;2023-09-19T02:04:37;99530.88;;;16.77;100.00
66681;BME280;53575;51.366;12.350;2023-09-19T02:07:03;99536.78;;;16.82;100.00
66681;BME280;53575;51.366;12.350;2023-09-19T02:09:31;99535.00;;;16.83;100.00
66681;BME280;53575;51.366;12.350;2023-09-19T02:12:00;99547.28;;;16.84;100.00
66681;BME280;53575;51.366;12.350;2023-09-19T02:14:26;99545.50;;;16.84;100.00
66681;BME280;53575;51.366;12.350;2023-09-19T02:16:52;99558.63;;;16.86;100.00
66681;BME280;53575;51.366;12.350;2023-09-19T02:19:19;99554.06;;;16.89;100.00
66681;BME280;53575;51.366;12.350;2023-09-19T02:21:46;99555.00;;;16.88;100.00
66681;BME280;53575;51.366;12.350;2023-09-19T02:24:11;99548.66;;;16.92;100.00
66681;BME280;53575;51.366;12.350;2023-09-19T02:26:37;99559.22;;;16.92;100.00
66681;BME280;53575;51.366;12.350;2023-09-19T02:29:03;99551.16;;;16.95;100.00
66681;BME280;53575;51.366;12.350;2023-09-19T02:31:30;99552.09;;;16.94;100.00
66681;BME280;53575;51.366;12.350;2023-09-19T02:33:56;99554.66;;;16.96;100.00
66681;BME280;53575;51.366;12.350;2023-09-19T02:36:21;99548.56;;;16.94;100.00
66681;BME280;53575;51.366;12.350;2023-09-19T02:38:49;99544.19;;;16.94;100.00
66681;BME280;53575;51.366;12.350;2023-09-19T02:41:14;99540.59;;;16.95;100.00
66681;BME280;53575;51.366;12.350;2023-09-19T02:43:40;99549.47;;;16.94;100.00
66681;BME280;53575;51.366;12.350;2023-09-19T02:46:05;99547.72;;;16.93;100.00
66681;BME280;53575;51.366;12.350;2023-09-19T02:48:30;99545.09;;;16.93;100.00
66681;BME280;53575;51.366;12.350;2023-09-19T02:50:57;99548.56;;;16.94;100.00
66681;BME280;53575;51.366;12.350;2023-09-19T02:53:23;99552.88;;;16.96;100.00
66681;BME280;53575;51.366;12.350;2023-09-19T02:55:49;99562.38;;;17.00;100.00
66681;BME280;53575;51.366;12.350;2023-09-19T02:58:15;99556.16;;;17.01;100.00
66681;BME280;53575;51.366;12.350;2023-09-19T03:00:41;99548.06;;;17.06;100.00
66681;BME280;53575;51.366;12.350;2023-09-19T03:03:08;99559.50;;;17.05;100.00
66681;BME280;53575;51.366;12.350;2023-09-19T03:05:34;99561.31;;;17.04;100.00
66681;BME280;53575;51.366;12.350;2023-09-19T03:08:00;99564.75;;;17.07;100.00
66681;BME280;53575;51.366;12.350;2023-09-19T03:10:26;99565.47;;;17.10;100.00
66681;BME280;53575;51.366;12.350;2023-09-19T03:12:53;99563.72;;;17.09;100.00
66681;BME280;53575;51.366;12.350;2023-09-19T03:15:18;99573.56;;;17.05;100.00
66681;BME280;53575;51.366;12.350;2023-09-19T03:17:45;99573.50;;;17.07;100.00
66681;BME280;53575;51.366;12.350;2023-09-19T03:20:11;99584.00;;;17.09;100.00
66681;BME280;53575;51.366;12.350;2023-09-19T03:22:38;99585.78;;;17.08;100.00
66681;BME280;53575;51.366;12.350;2023-09-19T03:25:05;99582.38;;;17.06;100.00
66681;BME280;53575;51.366;12.350;2023-09-19T03:27:34;99590.34;;;17.04;100.00
66681;BME280;53575;51.366;12.350;2023-09-19T03:30:00;99586.84;;;17.04;100.00
66681;BME280;53575;51.366;12.350;2023-09-19T03:32:25;99586.06;;;17.02;100.00
66681;BME280;53575;51.366;12.350;2023-09-19T03:34:51;99590.41;;;17.03;100.00
66681;BME280;53575;51.366;12.350;2023-09-19T03:37:16;99588.72;;;17.02;100.00
66681;BME280;53575;51.366;12.350;2023-09-19T03:39:42;99588.00;;;16.98;100.00
66681;BME280;53575;51.366;12.350;2023-09-19T03:42:08;99588.97;;;16.96;100.00
66681;BME280;53575;51.366;12.350;2023-09-19T03:44:33;99590.06;;;16.90;100.00
66681;BME280;53575;51.366;12.350;2023-09-19T03:46:58;99601.56;;;16.89;100.00
66681;BME280;53575;51.366;12.350;2023-09-19T03:49:24;99605.25;;;16.85;100.00
66681;BME280;53575;51.366;12.350;2023-09-19T03:51:49;99597.63;;;16.79;100.00
66681;BME280;53575;51.366;12.350;2023-09-19T03:54:15;99599.47;;;16.77;100.00
66681;BME280;53575;51.366;12.350;2023-09-19T03:56:42;99603.94;;;16.75;100.00
66681;BME280;53575;51.366;12.350;2023-09-19T03:59:08;99606.69;;;16.72;100.00
66681;BME280;53575;51.366;12.350;2023-09-19T04:01:34;99602.41;;;16.69;100.00
66681;BME280;53575;51.366;12.350;2023-09-19T04:04:00;99604.97;;;16.71;100.00
66681;BME280;53575;51.366;12.350;2023-09-19T04:06:36;99604.19;;;16.69;100.00
66681;BME280;53575;51.366;12.350;2023-09-19T04:09:02;99613.94;;;16.67;100.00
66681;BME280;53575;51.366;12.350;2023-09-19T04:11:29;99618.34;;;16.66;100.00
66681;BME280;53575;51.366;12.350;2023-09-19T04:13:54;99625.34;;;16.67;100.00
66681;BME280;53575;51.366;12.350;2023-09-19T04:16:20;99621.00;;;16.66;100.00
66681;BME280;53575;51.366;12.350;2023-09-19T04:18:45;99625.53;;;16.63;100.00
66681;BME280;53575;51.366;12.350;2023-09-19T04:21:10;99631.66;;;16.63;100.00
66681;BME280;53575;51.366;12.350;2023-09-19T04:23:36;99626.53;;;16.60;100.00
66681;BME280;53575;51.366;12.350;2023-09-19T04:26:01;99630.03;;;16.61;100.00
66681;BME280;53575;51.366;12.350;2023-09-19T04:28:29;99631.66;;;16.63;100.00
66681;BME280;53575;51.366;12.350;2023-09-19T04:30:54;99632.47;;;16.65;100.00
66681;BME280;53575;51.366;12.350;2023-09-19T04:33:20;99635.88;;;16.67;100.00
66681;BME280;53575;51.366;12.350;2023-09-19T04:35:49;99643.75;;;16.69;100.00
66681;BME280;53575;51.366;12.350;2023-09-19T04:38:14;99649.16;;;16.66;100.00
66681;BME280;53575;51.366;12.350;2023-09-19T04:40:40;99642.22;;;16.63;100.00
66681;BME280;53575;51.366;12.350;2023-09-19T04:43:05;99645.84;;;16.61;100.00
66681;BME280;53575;51.366;12.350;2023-09-19T04:45:31;99644.19;;;16.58;100.00
66681;BME280;53575;51.366;12.350;2023-09-19T04:47:56;99653.97;;;16.56;100.00
66681;BME280;53575;51.366;12.350;2023-09-19T04:50:22;99658.56;;;16.51;100.00
66681;BME280;53575;51.366;12.350;2023-09-19T04:52:51;99660.34;;;16.50;100.00
66681;BME280;53575;51.366;12.350;2023-09-19T04:55:18;99663.94;;;16.48;100.00
66681;BME280;53575;51.366;12.350;2023-09-19T04:57:44;99659.69;;;16.45;100.00
66681;BME280;53575;51.366;12.350;2023-09-19T05:00:12;99659.69;;;16.45;100.00
66681;BME280;53575;51.366;12.350;2023-09-19T05:02:40;99669.41;;;16.43;100.00
66681;BME280;53575;51.366;12.350;2023-09-19T05:05:07;99655.50;;;16.40;100.00
66681;BME280;53575;51.366;12.350;2023-09-19T05:07:33;99667.03;;;16.37;100.00
66681;BME280;53575;51.366;12.350;2023-09-19T05:09:59;99663.59;;;16.35;100.00
66681;BME280;53575;51.366;12.350;2023-09-19T05:12:26;99670.69;;;16.33;100.00
66681;BME280;53575;51.366;12.350;2023-09-19T05:14:52;99670.88;;;16.28;100.00
66681;BME280;53575;51.366;12.350;2023-09-19T05:17:18;99672.66;;;16.28;100.00
66681;BME280;53575;51.366;12.350;2023-09-19T05:19:43;99688.47;;;16.28;100.00
66681;BME280;53575;51.366;12.350;2023-09-19T05:22:08;99678.91;;;16.25;100.00
66681;BME280;53575;51.366;12.350;2023-09-19T05:24:34;99686.88;;;16.24;100.00
66681;BME280;53575;51.366;12.350;2023-09-19T05:26:59;99691.44;;;16.20;100.00
66681;BME280;53575;51.366;12.350;2023-09-19T05:29:25;99695.84;;;16.20;100.00
66681;BME280;53575;51.366;12.350;2023-09-19T05:31:51;99712.69;;;16.16;100.00
66681;BME280;53575;51.366;12.350;2023-09-19T05:34:16;99726.66;;;16.18;100.00
66681;BME280;53575;51.366;12.350;2023-09-19T05:36:41;99712.63;;;16.17;100.00
66681;BME280;53575;51.366;12.350;2023-09-19T05:39:07;99721.38;;;16.18;100.00
66681;BME280;53575;51.366;12.350;2023-09-19T05:41:35;99732.97;;;16.14;100.00
66681;BME280;53575;51.366;12.350;2023-09-19T05:44:02;99731.25;;;16.13;100.00
66681;BME280;53575;51.366;12.350;2023-09-19T05:46:28;99733.03;;;16.12;100.00
66681;BME280;53575;51.366;12.350;2023-09-19T05:48:55;99735.69;;;16.12;100.00
66681;BME280;53575;51.366;12.350;2023-09-19T05:51:22;99741.03;;;16.11;100.00
66681;BME280;53575;51.366;12.350;2023-09-19T05:53:48;99740.22;;;16.08;100.00
66681;BME280;53575;51.366;12.350;2023-09-19T05:56:14;99743.88;;;16.04;100.00
66681;BME280;53575;51.366;12.350;2023-09-19T05:58:40;99750.13;;;16.02;100.00
66681;BME280;53575;51.366;12.350;2023-09-19T06:01:08;99748.41;;;16.01;100.00
66681;BME280;53575;51.366;12.350;2023-09-19T06:03:35;99740.41;;;16.02;100.00
66681;BME280;53575;51.366;12.350;2023-09-19T06:06:01;99749.25;;;16.01;100.00
66681;BME280;53575;51.366;12.350;2023-09-19T06:08:27;99753.59;;;16.02;100.00
66681;BME280;53575;51.366;12.350;2023-09-19T06:10:53;99759.78;;;16.01;100.00
66681;BME280;53575;51.366;12.350;2023-09-19T06:13:19;99762.44;;;16.01;100.00
66681;BME280;53575;51.366;12.350;2023-09-19T06:15:45;99775.56;;;16.03;100.00
66681;BME280;53575;51.366;12.350;2023-09-19T06:18:13;99779.66;;;16.10;100.00
66681;BME280;53575;51.366;12.350;2023-09-19T06:20:48;99779.56;;;16.13;100.00
66681;BME280;53575;51.366;12.350;2023-09-19T06:23:13;99782.91;;;16.18;100.00
66681;BME280;53575;51.366;12.350;2023-09-19T06:25:39;99786.28;;;16.22;100.00
66681;BME280;53575;51.366;12.350;2023-09-19T06:28:06;99792.16;;;16.28;100.00
66681;BME280;53575;51.366;12.350;2023-09-19T06:30:33;99791.84;;;16.38;100.00
66681;BME280;53575;51.366;12.350;2023-09-19T06:32:59;99787.16;;;16.44;100.00
66681;BME280;53575;51.366;12.350;2023-09-19T06:35:32;99786.16;;;16.48;100.00
66681;BME280;53575;51.366;12.350;2023-09-19T06:37:58;99794.78;;;16.52;100.00
66681;BME280;53575;51.366;12.350;2023-09-19T06:40:23;99785.72;;;16.59;100.00
66681;BME280;53575;51.366;12.350;2023-09-19T06:42:53;99789.91;;;16.65;100.00
66681;BME280;53575;51.366;12.350;2023-09-19T06:45:19;99777.25;;;16.73;100.00
66681;BME280;53575;51.366;12.350;2023-09-19T06:47:49;99790.00;;;16.85;100.00
66681;BME280;53575;51.366;12.350;2023-09-19T06:50:15;99786.06;;;16.95;100.00
66681;BME280;53575;51.366;12.350;2023-09-19T06:52:43;99788.28;;;17.06;100.00
66681;BME280;53575;51.366;12.350;2023-09-19T06:55:09;99795.06;;;17.12;100.00
66681;BME280;53575;51.366;12.350;2023-09-19T06:57:37;99796.66;;;17.16;98.96
66681;BME280;53575;51.366;12.350;2023-09-19T07:00:02;99797.06;;;17.27;98.70
66681;BME280;53575;51.366;12.350;2023-09-19T07:02:33;99795.66;;;17.40;98.19
66681;BME280;53575;51.366;12.350;2023-09-19T07:04:59;99806.34;;;17.58;97.33
66681;BME280;53575;51.366;12.350;2023-09-19T07:07:24;99803.44;;;17.64;93.21
66681;BME280;53575;51.366;12.350;2023-09-19T07:09:50;99810.22;;;17.69;95.03
66681;BME280;53575;51.366;12.350;2023-09-19T07:12:16;99805.56;;;17.76;94.56
66681;BME280;53575;51.366;12.350;2023-09-19T07:14:42;99814.97;;;17.83;95.19
66681;BME280;53575;51.366;12.350;2023-09-19T07:17:07;99819.09;;;17.89;92.43
66681;BME280;53575;51.366;12.350;2023-09-19T07:19:33;99826.03;;;17.91;92.39
66681;BME280;53575;51.366;12.350;2023-09-19T07:21:59;99832.19;;;17.92;91.80
66681;BME280;53575;51.366;12.350;2023-09-19T07:24:27;99842.88;;;17.89;91.68
66681;BME280;53575;51.366;12.350;2023-09-19T07:26:54;99848.38;;;17.84;90.45
66681;BME280;53575;51.366;12.350;2023-09-19T07:29:19;99859.69;;;17.88;85.96
66681;BME280;53575;51.366;12.350;2023-09-19T07:31:45;99862.25;;;17.89;86.15
66681;BME280;53575;51.366;12.350;2023-09-19T07:34:11;99860.41;;;17.91;86.28
66681;BME280;53575;51.366;12.350;2023-09-19T07:36:37;99862.06;;;17.94;87.00
66681;BME280;53575;51.366;12.350;2023-09-19T07:39:03;99866.41;;;17.95;86.98
66681;BME280;53575;51.366;12.350;2023-09-19T07:41:32;99871.38;;;18.02;86.65
66681;BME280;53575;51.366;12.350;2023-09-19T07:43:58;99871.16;;;18.07;86.12
66681;BME280;53575;51.366;12.350;2023-09-19T07:46:23;99877.81;;;18.16;83.50
66681;BME280;53575;51.366;12.350;2023-09-19T07:48:49;99880.84;;;18.27;82.44
66681;BME280;53575;51.366;12.350;2023-09-19T07:51:15;99889.16;;;18.38;81.61
66681;BME280;53575;51.366;12.350;2023-09-19T07:53:41;99890.56;;;18.47;81.80
66681;BME280;53575;51.366;12.350;2023-09-19T07:56:08;99893.91;;;18.69;81.01
66681;BME280;53575;51.366;12.350;2023-09-19T07:58:34;99893.41;;;18.82;79.41
66681;BME280;53575;51.366;12.350;2023-09-19T08:01:04;99895.03;;;18.84;78.28
66681;BME280;53575;51.366;12.350;2023-09-19T08:03:30;99899.59;;;18.81;78.15
66681;BME280;53575;51.366;12.350;2023-09-19T08:05:59;99907.13;;;18.71;78.94
66681;BME280;53575;51.366;12.350;2023-09-19T08:08:25;99902.22;;;18.62;78.91
66681;BME280;53575;51.366;12.350;2023-09-19T08:10:55;99909.66;;;18.54;80.47
66681;BME280;53575;51.366;12.350;2023-09-19T08:13:23;99911.91;;;18.42;80.64
66681;BME280;53575;51.366;12.350;2023-09-19T08:15:49;99905.16;;;18.35;80.85
66681;BME280;53575;51.366;12.350;2023-09-19T08:18:16;99912.53;;;18.29;80.33
66681;BME280;53575;51.366;12.350;2023-09-19T08:20:42;99902.44;;;18.18;82.09
66681;BME280;53575;51.366;12.350;2023-09-19T08:23:11;99909.78;;;18.11;81.83
66681;BME280;53575;51.366;12.350;2023-09-19T08:25:37;99923.19;;;18.07;81.80
66681;BME280;53575;51.366;12.350;2023-09-19T08:28:04;99922.22;;;18.09;82.11
66681;BME280;53575;51.366;12.350;2023-09-19T08:30:34;99907.13;;;18.11;82.28
66681;BME280;53575;51.366;12.350;2023-09-19T08:33:00;99911.31;;;18.17;81.62
66681;BME280;53575;51.366;12.350;2023-09-19T08:35:26;99910.38;;;18.18;82.01
66681;BME280;53575;51.366;12.350;2023-09-19T08:37:52;99914.00;;;18.15;82.10
66681;BME280;53575;51.366;12.350;2023-09-19T08:40:17;99919.69;;;18.06;83.37
66681;BME280;53575;51.366;12.350;2023-09-19T08:42:54;99899.59;;;18.02;82.48
66681;BME280;53575;51.366;12.350;2023-09-19T08:45:21;99890.00;;;17.99;82.81
66681;BME280;53575;51.366;12.350;2023-09-19T08:48:08;99896.09;;;18.01;83.23
66681;BME280;53575;51.366;12.350;2023-09-19T08:51:02;99910.19;;;18.02;83.64
66681;BME280;53575;51.366;12.350;2023-09-19T08:53:42;99909.91;;;18.08;83.96
66681;BME280;53575;51.366;12.350;2023-09-19T08:56:12;99927.28;;;18.14;83.95
66681;BME280;53575;51.366;12.350;2023-09-19T08:58:50;99914.81;;;18.17;83.49
66681;BME280;53575;51.366;12.350;2023-09-19T09:01:18;99912.69;;;18.25;82.13
66681;BME280;53575;51.366;12.350;2023-09-19T09:03:51;99907.69;;;18.38;81.49
66681;BME280;53575;51.366;12.350;2023-09-19T09:06:19;99912.50;;;18.49;81.60
66681;BME280;53575;51.366;12.350;2023-09-19T09:08:45;99925.69;;;18.69;80.07
66681;BME280;53575;51.366;12.350;2023-09-19T09:11:11;99921.00;;;18.76;78.14
66681;BME280;53575;51.366;12.350;2023-09-19T09:13:37;99927.72;;;18.83;77.29
66681;BME280;53575;51.366;12.350;2023-09-19T09:16:04;99907.13;;;18.90;76.06
66681;BME280;53575;51.366;12.350;2023-09-19T09:18:29;99913.63;;;19.02;76.57
66681;BME280;53575;51.366;12.350;2023-09-19T09:20:55;99900.19;;;19.06;74.51
66681;BME280;53575;51.366;12.350;2023-09-19T09:23:21;99907.84;;;19.12;73.53
66681;BME280;53575;51.366;12.350;2023-09-19T09:25:54;99913.75;;;19.17;72.99
66681;BME280;53575;51.366;12.350;2023-09-19T09:28:22;99918.06;;;19.20;70.89
66681;BME280;53575;51.366;12.350;2023-09-19T09:30:48;99938.41;;;19.19;68.62
66681;BME280;53575;51.366;12.350;2023-09-19T09:33:14;99904.38;;;19.10;62.98
66681;BME280;53575;51.366;12.350;2023-09-19T09:36:07;99919.91;;;19.18;61.41
66681;BME280;53575;51.366;12.350;2023-09-19T09:38:44;99918.91;;;19.20;60.83
66681;BME280;53575;51.366;12.350;2023-09-19T09:41:10;99938.31;;;19.21;60.39
66681;BME280;53575;51.366;12.350;2023-09-19T09:43:40;99922.50;;;19.19;60.45
66681;BME280;53575;51.366;12.350;2023-09-19T09:46:17;99940.88;;;19.22;60.44
66681;BME280;53575;51.366;12.350;2023-09-19T09:51:39;99938.19;;;19.24;60.34
66681;BME280;53575;51.366;12.350;2023-09-19T09:54:17;99925.34;;;19.15;61.75
66681;BME280;53575;51.366;12.350;2023-09-19T09:56:58;99941.53;;;19.28;61.13
66681;BME280;53575;51.366;12.350;2023-09-19T09:59:53;99938.72;;;19.31;57.97
66681;BME280;53575;51.366;12.350;2023-09-19T10:02:29;99940.09;;;19.39;59.06
66681;BME280;53575;51.366;12.350;2023-09-19T10:04:58;99945.53;;;19.36;58.13
66681;BME280;53575;51.366;12.350;2023-09-19T10:07:32;99937.66;;;19.35;56.69
66681;BME280;53575;51.366;12.350;2023-09-19T10:10:02;99939.44;;;19.34;58.52
66681;BME280;53575;51.366;12.350;2023-09-19T10:12:43;99950.91;;;19.35;59.54
66681;BME280;53575;51.366;12.350;2023-09-19T10:15:10;99952.34;;;19.23;59.27
66681;BME280;53575;51.366;12.350;2023-09-19T10:17:36;99957.56;;;19.24;58.96
66681;BME280;53575;51.366;12.350;2023-09-19T10:20:05;99956.88;;;19.21;58.55
66681;BME280;53575;51.366;12.350;2023-09-19T10:22:43;99963.72;;;19.06;56.76
66681;BME280;53575;51.366;12.350;2023-09-19T10:25:10;99964.38;;;18.92;57.17
66681;BME280;53575;51.366;12.350;2023-09-19T10:27:35;99958.16;;;18.93;57.09
66681;BME280;53575;51.366;12.350;2023-09-19T10:30:05;99958.78;;;18.98;58.00
66681;BME280;53575;51.366;12.350;2023-09-19T10:32:33;99956.78;;;19.04;58.61
66681;BME280;53575;51.366;12.350;2023-09-19T10:35:01;99958.22;;;19.11;57.16
66681;BME280;53575;51.366;12.350;2023-09-19T10:37:27;99955.44;;;19.14;57.59
66681;BME280;53575;51.366;12.350;2023-09-19T10:39:56;99958.56;;;19.22;57.27
66681;BME280;53575;51.366;12.350;2023-09-19T10:42:23;99971.19;;;19.17;56.77
66681;BME280;53575;51.366;12.350;2023-09-19T10:44:53;99958.66;;;19.20;57.98
66681;BME280;53575;51.366;12.350;2023-09-19T10:47:19;99954.56;;;19.32;56.40
66681;BME280;53575;51.366;12.350;2023-09-19T10:49:46;99959.63;;;19.37;56.51
66681;BME280;53575;51.366;12.350;2023-09-19T10:52:14;99957.22;;;19.32;55.66
66681;BME280;53575;51.366;12.350;2023-09-19T10:54:52;99962.16;;;19.40;55.62
66681;BME280;53575;51.366;12.350;2023-09-19T10:57:23;99952.25;;;19.43;55.30
66681;BME280;53575;51.366;12.350;2023-09-19T11:00:15;99956.56;;;19.46;55.98
66681;BME280;53575;51.366;12.350;2023-09-19T11:06:00;99953.03;;;19.45;54.05
66681;BME280;53575;51.366;12.350;2023-09-19T11:08:26;99957.56;;;19.62;54.97
66681;BME280;53575;51.366;12.350;2023-09-19T11:10:52;99961.53;;;19.71;55.02
66681;BME280;53575;51.366;12.350;2023-09-19T11:13:24;99960.59;;;19.72;54.92
66681;BME280;53575;51.366;12.350;2023-09-19T11:27:12;99956.25;;;20.06;54.96
66681;BME280;53575;51.366;12.350;2023-09-19T11:29:39;99953.34;;;20.10;51.16
66681;BME280;53575;51.366;12.350;2023-09-19T11:32:06;99962.56;;;20.03;50.93
66681;BME280;53575;51.366;12.350;2023-09-19T11:34:41;99959.53;;;19.93;50.80
66681;BME280;53575;51.366;12.350;2023-09-19T11:39:37;99953.44;;;19.91;51.10
66681;BME280;53575;51.366;12.350;2023-09-19T11:42:40;99937.47;;;19.93;52.23
66681;BME280;53575;51.366;12.350;2023-09-19T11:45:06;99943.84;;;20.06;51.75
66681;BME280;53575;51.366;12.350;2023-09-19T11:47:32;99949.94;;;20.08;52.16
66681;BME280;53575;51.366;12.350;2023-09-19T11:50:01;99940.88;;;20.12;51.23
66681;BME280;53575;51.366;12.350;2023-09-19T11:52:28;99936.84;;;20.23;51.01
66681;BME280;53575;51.366;12.350;2023-09-19T11:54:59;99949.50;;;20.33;52.45
66681;BME280;53575;51.366;12.350;2023-09-19T11:57:28;99959.53;;;20.28;51.60
66681;BME280;53575;51.366;12.350;2023-09-19T11:59:55;99939.69;;;20.35;52.48
66681;BME280;53575;51.366;12.350;2023-09-19T12:02:47;99944.22;;;20.33;51.07
66681;BME280;53575;51.366;12.350;2023-09-19T12:05:16;99953.66;;;20.21;51.18
66681;BME280;53575;51.366;12.350;2023-09-19T12:07:43;99935.25;;;20.36;51.92
66681;BME280;53575;51.366;12.350;2023-09-19T12:10:11;99952.09;;;20.35;51.35
66681;BME280;53575;51.366;12.350;2023-09-19T12:12:37;99942.13;;;20.23;51.73
66681;BME280;53575;51.366;12.350;2023-09-19T12:15:03;99943.69;;;20.27;51.55
66681;BME280;53575;51.366;12.350;2023-09-19T12:17:39;99951.41;;;20.14;52.01
66681;BME280;53575;51.366;12.350;2023-09-19T12:20:08;99930.81;;;20.02;52.59
66681;BME280;53575;51.366;12.350;2023-09-19T12:22:44;99940.19;;;20.09;54.20
66681;BME280;53575;51.366;12.350;2023-09-19T12:25:11;99935.53;;;20.30;52.98
66681;BME280;53575;51.366;12.350;2023-09-19T12:27:43;99927.78;;;20.27;52.72
66681;BME280;53575;51.366;12.350;2023-09-19T12:30:10;99929.53;;;20.43;51.57
66681;BME280;53575;51.366;12.350;2023-09-19T12:32:39;99929.34;;;20.64;51.65
66681;BME280;53575;51.366;12.350;2023-09-19T12:35:06;99920.72;;;20.76;50.02
66681;BME280;53575;51.366;12.350;2023-09-19T12:37:44;99937.03;;;21.02;49.74
66681;BME280;53575;51.366;12.350;2023-09-19T12:40:18;99923.84;;;21.00;49.08
66681;BME280;53575;51.366;12.350;2023-09-19T12:42:52;99926.50;;;21.16;49.64
66681;BME280;53575;51.366;12.350;2023-09-19T12:45:20;99927.72;;;21.42;49.61
66681;BME280;53575;51.366;12.350;2023-09-19T12:48:23;99919.72;;;21.26;48.33
66681;BME280;53575;51.366;12.350;2023-09-19T12:51:07;99913.84;;;21.37;48.08
66681;BME280;53575;51.366;12.350;2023-09-19T12:56:06;99920.16;;;21.18;48.38
66681;BME280;53575;51.366;12.350;2023-09-19T12:58:34;99916.41;;;21.38;48.48
66681;BME280;53575;51.366;12.350;2023-09-19T13:01:00;99926.03;;;21.55;47.16
66681;BME280;53575;51.366;12.350;2023-09-19T13:03:27;99924.69;;;21.48;46.27
66681;BME280;53575;51.366;12.350;2023-09-19T13:06:04;99911.44;;;21.62;46.58
66681;BME280;53575;51.366;12.350;2023-09-19T13:08:31;99923.56;;;21.82;45.89
66681;BME280;53575;51.366;12.350;2023-09-19T13:11:06;99910.88;;;21.87;44.23
66681;BME280;53575;51.366;12.350;2023-09-19T13:13:36;99906.75;;;22.12;44.73
66681;BME280;53575;51.366;12.350;2023-09-19T13:16:02;99898.34;;;22.34;44.83
66681;BME280;53575;51.366;12.350;2023-09-19T13:18:29;99909.38;;;22.56;44.32
66681;BME280;53575;51.366;12.350;2023-09-19T13:21:06;99906.81;;;22.41;45.55
66681;BME280;53575;51.366;12.350;2023-09-19T13:23:37;99907.06;;;22.36;45.51
66681;BME280;53575;51.366;12.350;2023-09-19T13:26:03;99904.25;;;22.25;45.78
66681;BME280;53575;51.366;12.350;2023-09-19T13:28:31;99899.94;;;22.22;45.88
66681;BME280;53575;51.366;12.350;2023-09-19T13:30:56;99904.03;;;22.28;46.07
66681;BME280;53575;51.366;12.350;2023-09-19T13:33:22;99897.47;;;22.19;45.51